Terminal Aerodrome Forecast
Issued by NWS Shreveport, LA

Home | Current Version | Previous Version | Text Only | Print | Product List | Glossary On
Versions: 1 2 3 4 5 6 7 8 9 10 11 12 13 14 15 16 17 18 19
000
FTUS44 KSHV 011803 RRA
TAFTYR
TAF
KTYR 011803Z 0118/0218 04008KT P6SM SCT035
     FM020100 VRB05KT P6SM SCT025 BKN040
      TEMPO 0202/0205 5SM -TSRA BKN025CB OVC035
     FM020500 VRB06KT 5SM -SHRA BR OVC015
     FM020800 VRB04KT P6SM VCTS BKN015CB
      TEMPO 0208/0210 5SM -TSRA BR OVC008CB
     FM021100 36005KT 4SM -SHRA BR OVC008
     FM021500 02008KT 4SM BR OVC004=

USA.gov is the U.S. government's official web portal to all federal, state and local government web resources and services.